sensor_id;sensor_type;location;lat;lon;timestamp;P1;durP1;ratioP1;P2;durP2;ratioP2
51618;SDS011;38518;53.164;5.430;2023-12-04T00:01:18;44.47;;;27.63;;
51618;SDS011;38518;53.164;5.430;2023-12-04T00:03:44;45.60;;;26.77;;
51618;SDS011;38518;53.164;5.430;2023-12-04T00:06:11;45.22;;;26.58;;
51618;SDS011;38518;53.164;5.430;2023-12-04T00:08:37;47.65;;;26.63;;
51618;SDS011;38518;53.164;5.430;2023-12-04T00:11:06;44.72;;;27.20;;
51618;SDS011;38518;53.164;5.430;2023-12-04T00:13:38;46.55;;;28.15;;
51618;SDS011;38518;53.164;5.430;2023-12-04T00:16:04;43.25;;;25.80;;
51618;SDS011;38518;53.164;5.430;2023-12-04T00:18:31;46.42;;;26.42;;
51618;SDS011;38518;53.164;5.430;2023-12-04T00:20:57;35.67;;;20.58;;
51618;SDS011;38518;53.164;5.430;2023-12-04T00:23:23;46.08;;;27.13;;
51618;SDS011;38518;53.164;5.430;2023-12-04T00:25:48;40.90;;;24.63;;
51618;SDS011;38518;53.164;5.430;2023-12-04T00:28:15;40.33;;;23.58;;
51618;SDS011;38518;53.164;5.430;2023-12-04T00:30:41;36.45;;;22.17;;
51618;SDS011;38518;53.164;5.430;2023-12-04T00:33:07;41.60;;;24.92;;
51618;SDS011;38518;53.164;5.430;2023-12-04T00:35:32;38.90;;;22.85;;
51618;SDS011;38518;53.164;5.430;2023-12-04T00:37:58;41.08;;;24.83;;
51618;SDS011;38518;53.164;5.430;2023-12-04T00:40:24;38.30;;;23.10;;
51618;SDS011;38518;53.164;5.430;2023-12-04T00:42:50;41.90;;;24.45;;
51618;SDS011;38518;53.164;5.430;2023-12-04T00:45:16;38.42;;;24.40;;
51618;SDS011;38518;53.164;5.430;2023-12-04T00:47:41;43.20;;;25.33;;
51618;SDS011;38518;53.164;5.430;2023-12-04T00:50:07;40.25;;;22.92;;
51618;SDS011;38518;53.164;5.430;2023-12-04T00:52:33;44.15;;;25.38;;
51618;SDS011;38518;53.164;5.430;2023-12-04T00:54:59;38.95;;;23.27;;
51618;SDS011;38518;53.164;5.430;2023-12-04T00:57:24;35.67;;;21.58;;
51618;SDS011;38518;53.164;5.430;2023-12-04T00:59:50;44.67;;;25.02;;
51618;SDS011;38518;53.164;5.430;2023-12-04T01:02:16;40.65;;;24.77;;
51618;SDS011;38518;53.164;5.430;2023-12-04T01:04:41;47.15;;;25.15;;
51618;SDS011;38518;53.164;5.430;2023-12-04T01:07:07;40.78;;;24.25;;
51618;SDS011;38518;53.164;5.430;2023-12-04T01:09:36;40.65;;;24.15;;
51618;SDS011;38518;53.164;5.430;2023-12-04T01:12:03;43.17;;;25.27;;
51618;SDS011;38518;53.164;5.430;2023-12-04T01:14:29;40.97;;;23.65;;
51618;SDS011;38518;53.164;5.430;2023-12-04T01:16:55;45.63;;;25.67;;
51618;SDS011;38518;53.164;5.430;2023-12-04T01:19:21;41.55;;;24.02;;
51618;SDS011;38518;53.164;5.430;2023-12-04T01:21:47;40.60;;;23.58;;
51618;SDS011;38518;53.164;5.430;2023-12-04T01:24:13;43.90;;;25.20;;
51618;SDS011;38518;53.164;5.430;2023-12-04T01:26:40;45.97;;;25.85;;
51618;SDS011;38518;53.164;5.430;2023-12-04T01:29:05;47.28;;;24.35;;
51618;SDS011;38518;53.164;5.430;2023-12-04T01:31:31;44.13;;;26.08;;
51618;SDS011;38518;53.164;5.430;2023-12-04T01:33:57;47.03;;;26.05;;
51618;SDS011;38518;53.164;5.430;2023-12-04T01:36:23;45.38;;;25.45;;
51618;SDS011;38518;53.164;5.430;2023-12-04T01:38:49;46.08;;;25.30;;
51618;SDS011;38518;53.164;5.430;2023-12-04T01:41:14;43.53;;;25.48;;
51618;SDS011;38518;53.164;5.430;2023-12-04T01:43:40;44.65;;;24.50;;
51618;SDS011;38518;53.164;5.430;2023-12-04T01:46:06;45.17;;;25.98;;
51618;SDS011;38518;53.164;5.430;2023-12-04T01:48:32;40.33;;;24.20;;
51618;SDS011;38518;53.164;5.430;2023-12-04T01:50:58;46.20;;;25.50;;
51618;SDS011;38518;53.164;5.430;2023-12-04T01:53:28;51.35;;;27.45;;
51618;SDS011;38518;53.164;5.430;2023-12-04T01:55:54;49.22;;;27.67;;
51618;SDS011;38518;53.164;5.430;2023-12-04T01:58:19;51.63;;;27.88;;
51618;SDS011;38518;53.164;5.430;2023-12-04T02:00:46;49.60;;;26.77;;
51618;SDS011;38518;53.164;5.430;2023-12-04T02:03:12;50.90;;;27.20;;
51618;SDS011;38518;53.164;5.430;2023-12-04T02:05:39;52.03;;;26.55;;
51618;SDS011;38518;53.164;5.430;2023-12-04T02:08:05;49.63;;;27.08;;
51618;SDS011;38518;53.164;5.430;2023-12-04T02:10:31;52.17;;;27.25;;
51618;SDS011;38518;53.164;5.430;2023-12-04T02:12:56;48.35;;;25.58;;
51618;SDS011;38518;53.164;5.430;2023-12-04T02:15:23;50.22;;;26.60;;
51618;SDS011;38518;53.164;5.430;2023-12-04T02:17:49;37.00;;;20.20;;
51618;SDS011;38518;53.164;5.430;2023-12-04T02:20:16;46.65;;;24.65;;
51618;SDS011;38518;53.164;5.430;2023-12-04T02:22:42;49.65;;;26.25;;
51618;SDS011;38518;53.164;5.430;2023-12-04T02:25:08;45.17;;;25.70;;
51618;SDS011;38518;53.164;5.430;2023-12-04T02:27:37;55.25;;;26.23;;
51618;SDS011;38518;53.164;5.430;2023-12-04T02:30:12;46.08;;;26.02;;
51618;SDS011;38518;53.164;5.430;2023-12-04T02:32:42;54.72;;;28.13;;
51618;SDS011;38518;53.164;5.430;2023-12-04T02:35:10;52.63;;;26.65;;
51618;SDS011;38518;53.164;5.430;2023-12-04T02:37:37;54.67;;;27.27;;
51618;SDS011;38518;53.164;5.430;2023-12-04T02:40:04;43.85;;;23.08;;
51618;SDS011;38518;53.164;5.430;2023-12-04T02:42:31;48.10;;;25.63;;
51618;SDS011;38518;53.164;5.430;2023-12-04T02:44:57;49.85;;;25.98;;
51618;SDS011;38518;53.164;5.430;2023-12-04T02:47:23;46.25;;;25.63;;
51618;SDS011;38518;53.164;5.430;2023-12-04T02:49:49;64.00;;;30.58;;
51618;SDS011;38518;53.164;5.430;2023-12-04T02:52:15;52.53;;;28.90;;
51618;SDS011;38518;53.164;5.430;2023-12-04T02:54:41;59.78;;;29.20;;
51618;SDS011;38518;53.164;5.430;2023-12-04T02:57:06;50.35;;;26.13;;
51618;SDS011;38518;53.164;5.430;2023-12-04T02:59:32;62.08;;;29.88;;
51618;SDS011;38518;53.164;5.430;2023-12-04T03:01:58;54.25;;;26.42;;
51618;SDS011;38518;53.164;5.430;2023-12-04T03:04:23;61.80;;;29.17;;
51618;SDS011;38518;53.164;5.430;2023-12-04T03:06:49;54.25;;;27.88;;
51618;SDS011;38518;53.164;5.430;2023-12-04T03:09:15;60.67;;;29.05;;
51618;SDS011;38518;53.164;5.430;2023-12-04T03:11:41;61.55;;;29.75;;
51618;SDS011;38518;53.164;5.430;2023-12-04T03:14:07;41.17;;;19.05;;
51618;SDS011;38518;53.164;5.430;2023-12-04T03:16:33;54.83;;;26.10;;
51618;SDS011;38518;53.164;5.430;2023-12-04T03:18:59;53.47;;;24.98;;
51618;SDS011;38518;53.164;5.430;2023-12-04T03:21:24;52.10;;;24.08;;
51618;SDS011;38518;53.164;5.430;2023-12-04T03:23:50;52.53;;;25.90;;
51618;SDS011;38518;53.164;5.430;2023-12-04T03:26:17;60.50;;;28.10;;
51618;SDS011;38518;53.164;5.430;2023-12-04T03:28:43;61.72;;;29.27;;
51618;SDS011;38518;53.164;5.430;2023-12-04T03:31:09;60.00;;;29.13;;
51618;SDS011;38518;53.164;5.430;2023-12-04T03:33:35;63.85;;;29.20;;
51618;SDS011;38518;53.164;5.430;2023-12-04T03:36:00;67.65;;;28.60;;
51618;SDS011;38518;53.164;5.430;2023-12-04T03:38:26;64.18;;;28.45;;
51618;SDS011;38518;53.164;5.430;2023-12-04T03:40:52;54.88;;;27.40;;
51618;SDS011;38518;53.164;5.430;2023-12-04T03:43:18;60.95;;;30.20;;
51618;SDS011;38518;53.164;5.430;2023-12-04T03:45:43;63.22;;;29.63;;
51618;SDS011;38518;53.164;5.430;2023-12-04T03:48:09;56.80;;;28.85;;
51618;SDS011;38518;53.164;5.430;2023-12-04T03:50:35;63.80;;;29.20;;
51618;SDS011;38518;53.164;5.430;2023-12-04T03:53:01;66.03;;;30.48;;
51618;SDS011;38518;53.164;5.430;2023-12-04T03:55:27;75.45;;;31.88;;
51618;SDS011;38518;53.164;5.430;2023-12-04T03:57:53;70.28;;;30.95;;
51618;SDS011;38518;53.164;5.430;2023-12-04T04:00:20;63.78;;;29.30;;
51618;SDS011;38518;53.164;5.430;2023-12-04T04:02:46;50.05;;;25.00;;
51618;SDS011;38518;53.164;5.430;2023-12-04T04:05:11;65.55;;;29.70;;
51618;SDS011;38518;53.164;5.430;2023-12-04T04:07:37;54.67;;;26.55;;
51618;SDS011;38518;53.164;5.430;2023-12-04T04:10:03;68.85;;;29.60;;
51618;SDS011;38518;53.164;5.430;2023-12-04T04:12:29;61.88;;;27.30;;
51618;SDS011;38518;53.164;5.430;2023-12-04T04:14:56;63.47;;;29.80;;
51618;SDS011;38518;53.164;5.430;2023-12-04T04:17:22;56.00;;;26.63;;
51618;SDS011;38518;53.164;5.430;2023-12-04T04:19:51;63.05;;;29.25;;
51618;SDS011;38518;53.164;5.430;2023-12-04T04:22:17;54.67;;;25.10;;
51618;SDS011;38518;53.164;5.430;2023-12-04T04:24:43;54.40;;;26.15;;
51618;SDS011;38518;53.164;5.430;2023-12-04T04:27:09;51.67;;;24.73;;
51618;SDS011;38518;53.164;5.430;2023-12-04T04:29:34;55.90;;;26.55;;
51618;SDS011;38518;53.164;5.430;2023-12-04T04:32:00;62.95;;;27.55;;
51618;SDS011;38518;53.164;5.430;2023-12-04T04:34:26;53.80;;;25.45;;
51618;SDS011;38518;53.164;5.430;2023-12-04T04:36:52;55.05;;;25.83;;
51618;SDS011;38518;53.164;5.430;2023-12-04T04:39:17;50.17;;;25.40;;
51618;SDS011;38518;53.164;5.430;2023-12-04T04:41:43;57.35;;;27.33;;
51618;SDS011;38518;53.164;5.430;2023-12-04T04:44:10;55.90;;;25.55;;
51618;SDS011;38518;53.164;5.430;2023-12-04T04:46:36;56.78;;;26.42;;
51618;SDS011;38518;53.164;5.430;2023-12-04T04:49:02;56.33;;;27.45;;
51618;SDS011;38518;53.164;5.430;2023-12-04T04:51:31;49.78;;;26.55;;
51618;SDS011;38518;53.164;5.430;2023-12-04T04:53:58;54.75;;;25.33;;
51618;SDS011;38518;53.164;5.430;2023-12-04T04:56:24;54.53;;;25.27;;
51618;SDS011;38518;53.164;5.430;2023-12-04T04:58:51;50.55;;;25.27;;
51618;SDS011;38518;53.164;5.430;2023-12-04T05:01:16;54.40;;;25.80;;
51618;SDS011;38518;53.164;5.430;2023-12-04T05:03:42;51.67;;;25.15;;
51618;SDS011;38518;53.164;5.430;2023-12-04T05:06:08;50.55;;;25.65;;
51618;SDS011;38518;53.164;5.430;2023-12-04T05:08:34;47.13;;;24.30;;
51618;SDS011;38518;53.164;5.430;2023-12-04T05:11:00;46.30;;;23.55;;
51618;SDS011;38518;53.164;5.430;2023-12-04T05:13:25;51.53;;;25.42;;
51618;SDS011;38518;53.164;5.430;2023-12-04T05:15:51;47.38;;;24.63;;
51618;SDS011;38518;53.164;5.430;2023-12-04T05:18:17;49.53;;;22.88;;
51618;SDS011;38518;53.164;5.430;2023-12-04T05:20:43;46.05;;;23.77;;
51618;SDS011;38518;53.164;5.430;2023-12-04T05:23:09;46.90;;;24.23;;
51618;SDS011;38518;53.164;5.430;2023-12-04T05:25:34;45.20;;;23.25;;
51618;SDS011;38518;53.164;5.430;2023-12-04T05:28:00;50.70;;;24.85;;
51618;SDS011;38518;53.164;5.430;2023-12-04T05:30:26;42.17;;;21.02;;
51618;SDS011;38518;53.164;5.430;2023-12-04T05:32:52;48.35;;;24.63;;
51618;SDS011;38518;53.164;5.430;2023-12-04T05:35:17;40.95;;;20.55;;
51618;SDS011;38518;53.164;5.430;2023-12-04T05:37:44;47.35;;;23.35;;
51618;SDS011;38518;53.164;5.430;2023-12-04T05:40:10;44.72;;;22.50;;
51618;SDS011;38518;53.164;5.430;2023-12-04T05:42:36;43.42;;;22.13;;
51618;SDS011;38518;53.164;5.430;2023-12-04T05:45:02;44.80;;;22.33;;
51618;SDS011;38518;53.164;5.430;2023-12-04T05:47:28;42.65;;;23.50;;
51618;SDS011;38518;53.164;5.430;2023-12-04T05:49:54;43.92;;;23.67;;
51618;SDS011;38518;53.164;5.430;2023-12-04T05:52:20;41.20;;;22.02;;
51618;SDS011;38518;53.164;5.430;2023-12-04T05:54:46;43.75;;;22.67;;
51618;SDS011;38518;53.164;5.430;2023-12-04T05:57:12;39.53;;;20.42;;
51618;SDS011;38518;53.164;5.430;2023-12-04T05:59:37;38.70;;;21.10;;
51618;SDS011;38518;53.164;5.430;2023-12-04T06:02:03;41.90;;;19.92;;
51618;SDS011;38518;53.164;5.430;2023-12-04T06:04:29;36.97;;;19.67;;
51618;SDS011;38518;53.164;5.430;2023-12-04T06:06:55;37.35;;;17.65;;
51618;SDS011;38518;53.164;5.430;2023-12-04T06:09:20;38.42;;;19.80;;
51618;SDS011;38518;53.164;5.430;2023-12-04T06:11:46;37.17;;;20.67;;
51618;SDS011;38518;53.164;5.430;2023-12-04T06:14:12;41.08;;;22.50;;
51618;SDS011;38518;53.164;5.430;2023-12-04T06:16:38;38.60;;;19.88;;
51618;SDS011;38518;53.164;5.430;2023-12-04T06:19:04;38.45;;;19.67;;
51618;SDS011;38518;53.164;5.430;2023-12-04T06:21:30;37.97;;;20.52;;
51618;SDS011;38518;53.164;5.430;2023-12-04T06:23:56;40.08;;;20.40;;
51618;SDS011;38518;53.164;5.430;2023-12-04T06:26:22;36.42;;;19.95;;
51618;SDS011;38518;53.164;5.430;2023-12-04T06:28:49;36.72;;;18.80;;
51618;SDS011;38518;53.164;5.430;2023-12-04T06:31:15;38.80;;;21.38;;
51618;SDS011;38518;53.164;5.430;2023-12-04T06:33:41;39.75;;;21.35;;
51618;SDS011;38518;53.164;5.430;2023-12-04T06:36:07;35.00;;;20.25;;
51618;SDS011;38518;53.164;5.430;2023-12-04T06:38:38;33.42;;;18.77;;
51618;SDS011;38518;53.164;5.430;2023-12-04T06:41:05;36.75;;;20.42;;
51618;SDS011;38518;53.164;5.430;2023-12-04T06:43:32;34.53;;;19.63;;
51618;SDS011;38518;53.164;5.430;2023-12-04T06:45:58;35.65;;;20.48;;
51618;SDS011;38518;53.164;5.430;2023-12-04T06:48:24;36.83;;;19.33;;
51618;SDS011;38518;53.164;5.430;2023-12-04T06:50:50;34.50;;;19.92;;
51618;SDS011;38518;53.164;5.430;2023-12-04T06:53:16;31.65;;;17.50;;
51618;SDS011;38518;53.164;5.430;2023-12-04T06:55:42;35.10;;;19.10;;
51618;SDS011;38518;53.164;5.430;2023-12-04T06:58:09;32.78;;;19.13;;
51618;SDS011;38518;53.164;5.430;2023-12-04T07:00:35;35.10;;;19.75;;
51618;SDS011;38518;53.164;5.430;2023-12-04T07:03:01;34.42;;;20.27;;
51618;SDS011;38518;53.164;5.430;2023-12-04T07:05:27;34.75;;;19.00;;
51618;SDS011;38518;53.164;5.430;2023-12-04T07:07:53;32.05;;;19.15;;
51618;SDS011;38518;53.164;5.430;2023-12-04T07:10:19;34.53;;;19.17;;
51618;SDS011;38518;53.164;5.430;2023-12-04T07:12:45;30.88;;;18.15;;
51618;SDS011;38518;53.164;5.430;2023-12-04T07:15:11;38.25;;;19.85;;
51618;SDS011;38518;53.164;5.430;2023-12-04T07:17:37;34.25;;;18.80;;
51618;SDS011;38518;53.164;5.430;2023-12-04T07:20:04;29.80;;;17.70;;
51618;SDS011;38518;53.164;5.430;2023-12-04T07:22:33;34.47;;;18.05;;
51618;SDS011;38518;53.164;5.430;2023-12-04T07:24:59;29.65;;;17.75;;
51618;SDS011;38518;53.164;5.430;2023-12-04T07:27:25;29.10;;;15.88;;
51618;SDS011;38518;53.164;5.430;2023-12-04T07:29:51;33.22;;;18.45;;
51618;SDS011;38518;53.164;5.430;2023-12-04T07:32:17;30.58;;;18.13;;
51618;SDS011;38518;53.164;5.430;2023-12-04T07:34:43;33.30;;;17.90;;
51618;SDS011;38518;53.164;5.430;2023-12-04T07:37:09;35.55;;;18.58;;
51618;SDS011;38518;53.164;5.430;2023-12-04T07:39:35;32.67;;;17.63;;
51618;SDS011;38518;53.164;5.430;2023-12-04T07:42:01;31.58;;;18.67;;
51618;SDS011;38518;53.164;5.430;2023-12-04T07:44:27;32.97;;;17.63;;
51618;SDS011;38518;53.164;5.430;2023-12-04T07:46:53;33.30;;;19.00;;
51618;SDS011;38518;53.164;5.430;2023-12-04T07:49:18;32.58;;;19.13;;
51618;SDS011;38518;53.164;5.430;2023-12-04T07:51:44;29.65;;;18.15;;
51618;SDS011;38518;53.164;5.430;2023-12-04T07:54:10;30.73;;;18.25;;
51618;SDS011;38518;53.164;5.430;2023-12-04T07:56:36;31.58;;;18.05;;
51618;SDS011;38518;53.164;5.430;2023-12-04T07:59:02;32.72;;;17.65;;
51618;SDS011;38518;53.164;5.430;2023-12-04T08:01:28;28.75;;;16.42;;
51618;SDS011;38518;53.164;5.430;2023-12-04T08:03:54;24.98;;;15.75;;
51618;SDS011;38518;53.164;5.430;2023-12-04T08:06:19;28.63;;;16.95;;
51618;SDS011;38518;53.164;5.430;2023-12-04T08:08:45;27.40;;;16.70;;
51618;SDS011;38518;53.164;5.430;2023-12-04T08:11:11;31.55;;;17.13;;
51618;SDS011;38518;53.164;5.430;2023-12-04T08:13:38;28.38;;;16.95;;
51618;SDS011;38518;53.164;5.430;2023-12-04T08:16:05;25.38;;;15.73;;
51618;SDS011;38518;53.164;5.430;2023-12-04T08:18:38;27.42;;;15.85;;
51618;SDS011;38518;53.164;5.430;2023-12-04T08:21:03;29.08;;;16.55;;
51618;SDS011;38518;53.164;5.430;2023-12-04T08:23:29;25.13;;;16.38;;
51618;SDS011;38518;53.164;5.430;2023-12-04T08:25:55;27.42;;;15.55;;
51618;SDS011;38518;53.164;5.430;2023-12-04T08:28:22;22.38;;;15.32;;
51618;SDS011;38518;53.164;5.430;2023-12-04T08:30:48;28.15;;;15.73;;
51618;SDS011;38518;53.164;5.430;2023-12-04T08:33:14;23.77;;;14.80;;
51618;SDS011;38518;53.164;5.430;2023-12-04T08:35:40;23.52;;;14.57;;
51618;SDS011;38518;53.164;5.430;2023-12-04T08:38:06;26.00;;;15.60;;
51618;SDS011;38518;53.164;5.430;2023-12-04T08:40:32;22.15;;;14.55;;
51618;SDS011;38518;53.164;5.430;2023-12-04T08:42:57;24.90;;;15.52;;
51618;SDS011;38518;53.164;5.430;2023-12-04T08:45:23;24.52;;;14.73;;
51618;SDS011;38518;53.164;5.430;2023-12-04T08:47:49;24.52;;;14.65;;
51618;SDS011;38518;53.164;5.430;2023-12-04T08:50:15;23.70;;;14.40;;
51618;SDS011;38518;53.164;5.430;2023-12-04T08:52:41;18.45;;;13.00;;
51618;SDS011;38518;53.164;5.430;2023-12-04T08:55:07;22.10;;;13.27;;
51618;SDS011;38518;53.164;5.430;2023-12-04T08:57:33;20.15;;;13.02;;
51618;SDS011;38518;53.164;5.430;2023-12-04T08:59:59;20.38;;;12.70;;
51618;SDS011;38518;53.164;5.430;2023-12-04T09:02:25;22.45;;;13.20;;
51618;SDS011;38518;53.164;5.430;2023-12-04T09:04:50;19.80;;;13.00;;
51618;SDS011;38518;53.164;5.430;2023-12-04T09:07:16;19.02;;;12.40;;
51618;SDS011;38518;53.164;5.430;2023-12-04T09:09:42;19.77;;;12.82;;
51618;SDS011;38518;53.164;5.430;2023-12-04T09:12:09;17.83;;;11.88;;
51618;SDS011;38518;53.164;5.430;2023-12-04T09:14:35;20.38;;;13.15;;
51618;SDS011;38518;53.164;5.430;2023-12-04T09:17:01;19.33;;;12.20;;
51618;SDS011;38518;53.164;5.430;2023-12-04T09:19:28;20.77;;;13.23;;
51618;SDS011;38518;53.164;5.430;2023-12-04T09:21:54;19.25;;;11.82;;
51618;SDS011;38518;53.164;5.430;2023-12-04T09:24:22;19.52;;;12.40;;
51618;SDS011;38518;53.164;5.430;2023-12-04T09:26:48;20.15;;;12.23;;
51618;SDS011;38518;53.164;5.430;2023-12-04T09:29:14;17.90;;;11.68;;
51618;SDS011;38518;53.164;5.430;2023-12-04T09:31:41;18.63;;;12.13;;
51618;SDS011;38518;53.164;5.430;2023-12-04T09:34:07;17.33;;;11.90;;
51618;SDS011;38518;53.164;5.430;2023-12-04T09:36:34;19.15;;;11.13;;
51618;SDS011;38518;53.164;5.430;2023-12-04T09:39:00;19.60;;;12.15;;
51618;SDS011;38518;53.164;5.430;2023-12-04T09:41:26;18.83;;;13.07;;
51618;SDS011;38518;53.164;5.430;2023-12-04T09:43:52;17.15;;;12.05;;
51618;SDS011;38518;53.164;5.430;2023-12-04T09:46:19;17.33;;;11.02;;
51618;SDS011;38518;53.164;5.430;2023-12-04T09:48:45;18.55;;;11.48;;
51618;SDS011;38518;53.164;5.430;2023-12-04T09:51:11;17.77;;;11.43;;
51618;SDS011;38518;53.164;5.430;2023-12-04T09:53:39;18.55;;;11.82;;
51618;SDS011;38518;53.164;5.430;2023-12-04T09:56:06;20.35;;;12.38;;
51618;SDS011;38518;53.164;5.430;2023-12-04T09:58:34;17.70;;;11.85;;
51618;SDS011;38518;53.164;5.430;2023-12-04T10:01:03;17.92;;;11.57;;
51618;SDS011;38518;53.164;5.430;2023-12-04T10:03:29;16.65;;;11.30;;
51618;SDS011;38518;53.164;5.430;2023-12-04T10:05:56;20.13;;;11.77;;
51618;SDS011;38518;53.164;5.430;2023-12-04T10:08:22;19.75;;;11.57;;
51618;SDS011;38518;53.164;5.430;2023-12-04T10:10:48;16.88;;;10.73;;
51618;SDS011;38518;53.164;5.430;2023-12-04T10:13:14;17.17;;;10.35;;
51618;SDS011;38518;53.164;5.430;2023-12-04T10:15:49;18.10;;;11.00;;
51618;SDS011;38518;53.164;5.430;2023-12-04T10:18:29;16.35;;;10.93;;
51618;SDS011;38518;53.164;5.430;2023-12-04T10:20:57;15.13;;;10.10;;
51618;SDS011;38518;53.164;5.430;2023-12-04T10:23:36;16.23;;;11.02;;
51618;SDS011;38518;53.164;5.430;2023-12-04T10:26:05;16.77;;;11.43;;
51618;SDS011;38518;53.164;5.430;2023-12-04T10:28:33;16.15;;;10.88;;
51618;SDS011;38518;53.164;5.430;2023-12-04T10:30:59;15.73;;;10.32;;
51618;SDS011;38518;53.164;5.430;2023-12-04T10:33:25;15.07;;;10.38;;
51618;SDS011;38518;53.164;5.430;2023-12-04T10:35:52;18.40;;;11.35;;
51618;SDS011;38518;53.164;5.430;2023-12-04T10:38:18;16.52;;;10.63;;
51618;SDS011;38518;53.164;5.430;2023-12-04T10:40:44;16.25;;;11.38;;
51618;SDS011;38518;53.164;5.430;2023-12-04T10:43:11;14.07;;;10.85;;
51618;SDS011;38518;53.164;5.430;2023-12-04T10:45:40;14.35;;;9.85;;
51618;SDS011;38518;53.164;5.430;2023-12-04T10:48:09;18.35;;;10.88;;
51618;SDS011;38518;53.164;5.430;2023-12-04T10:50:56;14.18;;;10.48;;
51618;SDS011;38518;53.164;5.430;2023-12-04T10:53:23;15.02;;;9.98;;
51618;SDS011;38518;53.164;5.430;2023-12-04T10:55:49;17.85;;;10.82;;
51618;SDS011;38518;53.164;5.430;2023-12-04T10:58:19;12.93;;;9.30;;
51618;SDS011;38518;53.164;5.430;2023-12-04T11:00:50;16.45;;;10.98;;
51618;SDS011;38518;53.164;5.430;2023-12-04T11:03:20;14.63;;;9.85;;
51618;SDS011;38518;53.164;5.430;2023-12-04T11:06:00;14.90;;;10.25;;
51618;SDS011;38518;53.164;5.430;2023-12-04T11:08:29;14.05;;;9.55;;
51618;SDS011;38518;53.164;5.430;2023-12-04T11:11:02;13.50;;;9.20;;
51618;SDS011;38518;53.164;5.430;2023-12-04T11:13:32;12.93;;;9.20;;
51618;SDS011;38518;53.164;5.430;2023-12-04T11:19:18;13.60;;;9.40;;
51618;SDS011;38518;53.164;5.430;2023-12-04T11:21:52;14.07;;;9.80;;
51618;SDS011;38518;53.164;5.430;2023-12-04T11:24:22;14.13;;;9.15;;
51618;SDS011;38518;53.164;5.430;2023-12-04T11:26:49;12.75;;;9.25;;
51618;SDS011;38518;53.164;5.430;2023-12-04T11:29:16;12.25;;;9.60;;
51618;SDS011;38518;53.164;5.430;2023-12-04T11:31:42;13.93;;;8.95;;
51618;SDS011;38518;53.164;5.430;2023-12-04T11:34:08;13.02;;;9.20;;
51618;SDS011;38518;53.164;5.430;2023-12-04T11:36:35;14.38;;;9.75;;
51618;SDS011;38518;53.164;5.430;2023-12-04T11:39:01;13.95;;;9.65;;
51618;SDS011;38518;53.164;5.430;2023-12-04T11:41:29;14.23;;;9.35;;
51618;SDS011;38518;53.164;5.430;2023-12-04T11:43:56;15.55;;;10.05;;
51618;SDS011;38518;53.164;5.430;2023-12-04T11:46:22;13.63;;;9.38;;
51618;SDS011;38518;53.164;5.430;2023-12-04T11:48:50;14.70;;;9.57;;
51618;SDS011;38518;53.164;5.430;2023-12-04T11:54:04;15.13;;;9.60;;
51618;SDS011;38518;53.164;5.430;2023-12-04T11:56:32;15.82;;;10.90;;
51618;SDS011;38518;53.164;5.430;2023-12-04T11:59:05;13.98;;;9.50;;
51618;SDS011;38518;53.164;5.430;2023-12-04T12:01:38;12.65;;;9.25;;
51618;SDS011;38518;53.164;5.430;2023-12-04T12:04:05;11.90;;;9.20;;
51618;SDS011;38518;53.164;5.430;2023-12-04T12:06:31;13.50;;;8.63;;
51618;SDS011;38518;53.164;5.430;2023-12-04T12:08:57;13.93;;;9.30;;
51618;SDS011;38518;53.164;5.430;2023-12-04T12:11:23;12.60;;;9.23;;
51618;SDS011;38518;53.164;5.430;2023-12-04T12:13:49;11.90;;;8.85;;
51618;SDS011;38518;53.164;5.430;2023-12-04T12:16:17;13.07;;;9.27;;
51618;SDS011;38518;53.164;5.430;2023-12-04T12:18:43;11.82;;;9.18;;
51618;SDS011;38518;53.164;5.430;2023-12-04T12:21:09;13.48;;;9.00;;
51618;SDS011;38518;53.164;5.430;2023-12-04T12:23:35;13.00;;;9.05;;
51618;SDS011;38518;53.164;5.430;2023-12-04T12:26:01;13.27;;;9.30;;
51618;SDS011;38518;53.164;5.430;2023-12-04T12:28:28;14.48;;;9.70;;
51618;SDS011;38518;53.164;5.430;2023-12-04T12:30:54;15.05;;;9.68;;
51618;SDS011;38518;53.164;5.430;2023-12-04T12:33:20;12.77;;;9.82;;
51618;SDS011;38518;53.164;5.430;2023-12-04T12:35:48;14.05;;;8.90;;
51618;SDS011;38518;53.164;5.430;2023-12-04T12:38:13;17.55;;;9.60;;
51618;SDS011;38518;53.164;5.430;2023-12-04T12:40:40;13.75;;;10.20;;
51618;SDS011;38518;53.164;5.430;2023-12-04T12:43:06;13.15;;;9.10;;
51618;SDS011;38518;53.164;5.430;2023-12-04T12:45:40;13.73;;;9.82;;
51618;SDS011;38518;53.164;5.430;2023-12-04T12:48:09;11.23;;;8.77;;
51618;SDS011;38518;53.164;5.430;2023-12-04T12:50:42;12.98;;;9.05;;
51618;SDS011;38518;53.164;5.430;2023-12-04T12:53:08;13.13;;;9.27;;
51618;SDS011;38518;53.164;5.430;2023-12-04T12:55:42;13.02;;;9.23;;
51618;SDS011;38518;53.164;5.430;2023-12-04T12:58:11;12.10;;;9.93;;
51618;SDS011;38518;53.164;5.430;2023-12-04T13:00:40;14.50;;;11.68;;
51618;SDS011;38518;53.164;5.430;2023-12-04T13:03:17;14.82;;;9.45;;
51618;SDS011;38518;53.164;5.430;2023-12-04T13:08:09;13.10;;;9.88;;
51618;SDS011;38518;53.164;5.430;2023-12-04T13:10:36;17.00;;;10.07;;
51618;SDS011;38518;53.164;5.430;2023-12-04T13:13:03;13.40;;;10.98;;
51618;SDS011;38518;53.164;5.430;2023-12-04T13:15:28;14.05;;;9.45;;
51618;SDS011;38518;53.164;5.430;2023-12-04T13:17:54;13.35;;;9.45;;
51618;SDS011;38518;53.164;5.430;2023-12-04T13:20:21;14.00;;;10.35;;
51618;SDS011;38518;53.164;5.430;2023-12-04T13:22:48;14.38;;;10.30;;
51618;SDS011;38518;53.164;5.430;2023-12-04T13:25:14;13.75;;;9.27;;
51618;SDS011;38518;53.164;5.430;2023-12-04T13:27:40;14.35;;;9.77;;
51618;SDS011;38518;53.164;5.430;2023-12-04T13:30:06;13.32;;;9.75;;
51618;SDS011;38518;53.164;5.430;2023-12-04T13:32:37;13.18;;;9.70;;
51618;SDS011;38518;53.164;5.430;2023-12-04T13:35:06;14.02;;;9.25;;
51618;SDS011;38518;53.164;5.430;2023-12-04T13:37:36;14.60;;;9.38;;
51618;SDS011;38518;53.164;5.430;2023-12-04T13:40:04;13.10;;;9.60;;
51618;SDS011;38518;53.164;5.430;2023-12-04T13:42:33;14.10;;;9.82;;
51618;SDS011;38518;53.164;5.430;2023-12-04T13:45:18;13.80;;;9.25;;
51618;SDS011;38518;53.164;5.430;2023-12-04T13:47:47;13.20;;;9.25;;
51618;SDS011;38518;53.164;5.430;2023-12-04T13:50:13;12.60;;;8.73;;
51618;SDS011;38518;53.164;5.430;2023-12-04T13:52:38;14.90;;;9.35;;
51618;SDS011;38518;53.164;5.430;2023-12-04T13:55:05;11.57;;;8.70;;
51618;SDS011;38518;53.164;5.430;2023-12-04T13:57:45;14.38;;;9.75;;
51618;SDS011;38518;53.164;5.430;2023-12-04T14:00:34;11.48;;;9.02;;
51618;SDS011;38518;53.164;5.430;2023-12-04T14:02:59;12.93;;;8.85;;
51618;SDS011;38518;53.164;5.430;2023-12-04T14:05:29;12.18;;;8.82;;
51618;SDS011;38518;53.164;5.430;2023-12-04T14:07:55;13.38;;;8.52;;
51618;SDS011;38518;53.164;5.430;2023-12-04T14:10:23;12.80;;;9.02;;
51618;SDS011;38518;53.164;5.430;2023-12-04T14:12:51;13.23;;;9.18;;
51618;SDS011;38518;53.164;5.430;2023-12-04T14:15:16;14.13;;;9.52;;
51618;SDS011;38518;53.164;5.430;2023-12-04T14:17:43;13.13;;;8.85;;
51618;SDS011;38518;53.164;5.430;2023-12-04T14:20:08;12.13;;;8.57;;
51618;SDS011;38518;53.164;5.430;2023-12-04T14:22:39;13.63;;;9.30;;
51618;SDS011;38518;53.164;5.430;2023-12-04T14:25:07;13.77;;;8.52;;
51618;SDS011;38518;53.164;5.430;2023-12-04T14:27:33;11.50;;;8.50;;
51618;SDS011;38518;53.164;5.430;2023-12-04T14:30:00;12.48;;;10.82;;